sensor_id;sensor_type;location;lat;lon;timestamp;P1;durP1;ratioP1;P2;durP2;ratioP2
66546;SDS011;53400;50.364;14.874;2022-10-30T00:01:00;36.80;;;25.15;;
66546;SDS011;53400;50.364;14.874;2022-10-30T00:03:37;42.90;;;28.02;;
66546;SDS011;53400;50.364;14.874;2022-10-30T00:06:04;41.08;;;28.15;;
66546;SDS011;53400;50.364;14.874;2022-10-30T00:08:30;37.65;;;25.30;;
66546;SDS011;53400;50.364;14.874;2022-10-30T00:11:03;41.00;;;28.17;;
66546;SDS011;53400;50.364;14.874;2022-10-30T00:15:55;39.80;;;24.70;;
66546;SDS011;53400;50.364;14.874;2022-10-30T00:18:21;40.65;;;30.10;;
66546;SDS011;53400;50.364;14.874;2022-10-30T00:20:47;38.47;;;25.45;;
66546;SDS011;53400;50.364;14.874;2022-10-30T00:23:14;33.40;;;24.08;;
66546;SDS011;53400;50.364;14.874;2022-10-30T00:25:40;37.97;;;25.90;;
66546;SDS011;53400;50.364;14.874;2022-10-30T00:28:08;33.95;;;23.42;;
66546;SDS011;53400;50.364;14.874;2022-10-30T00:30:34;34.08;;;24.50;;
66546;SDS011;53400;50.364;14.874;2022-10-30T00:33:01;35.22;;;24.38;;
66546;SDS011;53400;50.364;14.874;2022-10-30T00:35:27;37.38;;;26.08;;
66546;SDS011;53400;50.364;14.874;2022-10-30T00:37:54;33.58;;;24.65;;
66546;SDS011;53400;50.364;14.874;2022-10-30T00:40:20;33.83;;;23.02;;
66546;SDS011;53400;50.364;14.874;2022-10-30T00:42:47;31.02;;;21.98;;
66546;SDS011;53400;50.364;14.874;2022-10-30T00:45:15;31.02;;;20.92;;
66546;SDS011;53400;50.364;14.874;2022-10-30T00:47:42;32.42;;;21.67;;
66546;SDS011;53400;50.364;14.874;2022-10-30T00:50:12;29.30;;;21.15;;
66546;SDS011;53400;50.364;14.874;2022-10-30T00:52:43;33.75;;;23.10;;
66546;SDS011;53400;50.364;14.874;2022-10-30T00:55:14;32.55;;;22.45;;
66546;SDS011;53400;50.364;14.874;2022-10-30T00:57:44;34.42;;;23.20;;
66546;SDS011;53400;50.364;14.874;2022-10-30T01:00:11;31.60;;;21.90;;
66546;SDS011;53400;50.364;14.874;2022-10-30T01:02:40;31.73;;;22.35;;
66546;SDS011;53400;50.364;14.874;2022-10-30T01:05:08;35.67;;;23.90;;
66546;SDS011;53400;50.364;14.874;2022-10-30T01:07:37;32.33;;;22.45;;
66546;SDS011;53400;50.364;14.874;2022-10-30T01:10:03;31.42;;;21.25;;
66546;SDS011;53400;50.364;14.874;2022-10-30T01:12:29;31.38;;;21.92;;
66546;SDS011;53400;50.364;14.874;2022-10-30T01:14:55;32.53;;;21.65;;
66546;SDS011;53400;50.364;14.874;2022-10-30T01:17:36;29.70;;;20.80;;
66546;SDS011;53400;50.364;14.874;2022-10-30T01:20:32;29.65;;;21.30;;
66546;SDS011;53400;50.364;14.874;2022-10-30T01:23:14;32.85;;;22.45;;
66546;SDS011;53400;50.364;14.874;2022-10-30T01:25:51;31.35;;;21.67;;
66546;SDS011;53400;50.364;14.874;2022-10-30T01:28:34;29.65;;;21.55;;
66546;SDS011;53400;50.364;14.874;2022-10-30T01:31:13;29.98;;;21.52;;
66546;SDS011;53400;50.364;14.874;2022-10-30T01:33:53;38.10;;;25.35;;
66546;SDS011;53400;50.364;14.874;2022-10-30T01:36:26;50.05;;;30.77;;
66546;SDS011;53400;50.364;14.874;2022-10-30T01:38:59;39.05;;;26.30;;
66546;SDS011;53400;50.364;14.874;2022-10-30T01:41:28;37.92;;;24.20;;
66546;SDS011;53400;50.364;14.874;2022-10-30T01:43:55;36.70;;;25.15;;
66546;SDS011;53400;50.364;14.874;2022-10-30T01:46:30;38.47;;;26.05;;
66546;SDS011;53400;50.364;14.874;2022-10-30T01:52:08;40.63;;;26.63;;
66546;SDS011;53400;50.364;14.874;2022-10-30T01:54:42;37.40;;;25.52;;
66546;SDS011;53400;50.364;14.874;2022-10-30T01:57:15;42.75;;;25.50;;
66546;SDS011;53400;50.364;14.874;2022-10-30T01:59:50;38.80;;;25.80;;
66546;SDS011;53400;50.364;14.874;2022-10-30T02:02:21;35.15;;;23.92;;
66546;SDS011;53400;50.364;14.874;2022-10-30T02:04:49;35.63;;;24.38;;
66546;SDS011;53400;50.364;14.874;2022-10-30T02:07:15;34.13;;;23.13;;
66546;SDS011;53400;50.364;14.874;2022-10-30T02:09:41;32.45;;;21.33;;
66546;SDS011;53400;50.364;14.874;2022-10-30T02:12:07;32.10;;;22.50;;
66546;SDS011;53400;50.364;14.874;2022-10-30T02:14:35;31.90;;;21.83;;
66546;SDS011;53400;50.364;14.874;2022-10-30T02:17:03;34.15;;;21.90;;
66546;SDS011;53400;50.364;14.874;2022-10-30T02:19:31;41.85;;;26.80;;
66546;SDS011;53400;50.364;14.874;2022-10-30T02:21:58;42.63;;;26.67;;
66546;SDS011;53400;50.364;14.874;2022-10-30T02:24:24;35.60;;;24.38;;
66546;SDS011;53400;50.364;14.874;2022-10-30T02:26:50;34.95;;;23.77;;
66546;SDS011;53400;50.364;14.874;2022-10-30T02:29:15;34.63;;;24.10;;
66546;SDS011;53400;50.364;14.874;2022-10-30T02:31:45;34.30;;;22.77;;
66546;SDS011;53400;50.364;14.874;2022-10-30T02:34:10;33.15;;;22.73;;
66546;SDS011;53400;50.364;14.874;2022-10-30T02:36:37;31.85;;;22.67;;
66546;SDS011;53400;50.364;14.874;2022-10-30T02:39:04;32.10;;;21.73;;
66546;SDS011;53400;50.364;14.874;2022-10-30T02:41:31;29.75;;;21.08;;
66546;SDS011;53400;50.364;14.874;2022-10-30T02:43:57;35.40;;;23.33;;
66546;SDS011;53400;50.364;14.874;2022-10-30T02:46:23;38.83;;;24.83;;
66546;SDS011;53400;50.364;14.874;2022-10-30T02:48:49;39.08;;;24.23;;
66546;SDS011;53400;50.364;14.874;2022-10-30T02:51:15;33.75;;;23.42;;
66546;SDS011;53400;50.364;14.874;2022-10-30T02:53:41;31.60;;;21.65;;
66546;SDS011;53400;50.364;14.874;2022-10-30T02:56:09;35.03;;;21.73;;
66546;SDS011;53400;50.364;14.874;2022-10-30T02:58:37;31.38;;;20.73;;
66546;SDS011;53400;50.364;14.874;2022-10-30T03:01:06;30.48;;;20.45;;
66546;SDS011;53400;50.364;14.874;2022-10-30T03:03:33;27.63;;;19.40;;
66546;SDS011;53400;50.364;14.874;2022-10-30T03:05:59;35.90;;;22.70;;
66546;SDS011;53400;50.364;14.874;2022-10-30T03:08:26;34.13;;;22.42;;
66546;SDS011;53400;50.364;14.874;2022-10-30T03:10:57;40.65;;;25.02;;
66546;SDS011;53400;50.364;14.874;2022-10-30T03:13:25;35.05;;;21.00;;
66546;SDS011;53400;50.364;14.874;2022-10-30T03:15:52;46.50;;;28.27;;
66546;SDS011;53400;50.364;14.874;2022-10-30T03:18:17;69.68;;;26.55;;
66546;SDS011;53400;50.364;14.874;2022-10-30T03:20:43;36.63;;;23.17;;
66546;SDS011;53400;50.364;14.874;2022-10-30T03:23:09;70.32;;;25.95;;
66546;SDS011;53400;50.364;14.874;2022-10-30T03:25:35;62.58;;;25.92;;
66546;SDS011;53400;50.364;14.874;2022-10-30T03:28:01;55.20;;;25.38;;
66546;SDS011;53400;50.364;14.874;2022-10-30T03:30:28;50.33;;;25.67;;
66546;SDS011;53400;50.364;14.874;2022-10-30T03:32:54;32.65;;;23.02;;
66546;SDS011;53400;50.364;14.874;2022-10-30T03:35:20;63.00;;;26.75;;
66546;SDS011;53400;50.364;14.874;2022-10-30T03:37:45;53.88;;;25.10;;
66546;SDS011;53400;50.364;14.874;2022-10-30T03:40:11;70.38;;;26.17;;
66546;SDS011;53400;50.364;14.874;2022-10-30T03:42:38;54.17;;;25.23;;
66546;SDS011;53400;50.364;14.874;2022-10-30T03:45:05;43.53;;;25.52;;
66546;SDS011;53400;50.364;14.874;2022-10-30T03:47:32;47.88;;;25.17;;
66546;SDS011;53400;50.364;14.874;2022-10-30T03:49:59;62.35;;;26.38;;
66546;SDS011;53400;50.364;14.874;2022-10-30T03:52:24;40.08;;;26.45;;
66546;SDS011;53400;50.364;14.874;2022-10-30T03:54:51;39.80;;;26.25;;
66546;SDS011;53400;50.364;14.874;2022-10-30T03:57:17;39.20;;;25.60;;
66546;SDS011;53400;50.364;14.874;2022-10-30T03:59:43;38.22;;;25.00;;
66546;SDS011;53400;50.364;14.874;2022-10-30T04:02:09;39.17;;;24.88;;
66546;SDS011;53400;50.364;14.874;2022-10-30T04:04:36;37.03;;;22.88;;
66546;SDS011;53400;50.364;14.874;2022-10-30T04:07:02;34.50;;;22.45;;
66546;SDS011;53400;50.364;14.874;2022-10-30T04:09:27;34.65;;;23.40;;
66546;SDS011;53400;50.364;14.874;2022-10-30T04:11:53;34.67;;;22.20;;
66546;SDS011;53400;50.364;14.874;2022-10-30T04:14:19;30.05;;;21.27;;
66546;SDS011;53400;50.364;14.874;2022-10-30T04:16:45;29.52;;;19.83;;
66546;SDS011;53400;50.364;14.874;2022-10-30T04:19:11;33.72;;;21.00;;
66546;SDS011;53400;50.364;14.874;2022-10-30T04:21:38;29.23;;;20.05;;
66546;SDS011;53400;50.364;14.874;2022-10-30T04:24:04;28.95;;;20.52;;
66546;SDS011;53400;50.364;14.874;2022-10-30T04:26:30;37.58;;;21.48;;
66546;SDS011;53400;50.364;14.874;2022-10-30T04:28:56;32.58;;;21.30;;
66546;SDS011;53400;50.364;14.874;2022-10-30T04:31:22;72.05;;;23.40;;
66546;SDS011;53400;50.364;14.874;2022-10-30T04:33:48;33.75;;;22.65;;
66546;SDS011;53400;50.364;14.874;2022-10-30T04:36:14;37.50;;;22.58;;
66546;SDS011;53400;50.364;14.874;2022-10-30T04:38:43;37.60;;;23.23;;
66546;SDS011;53400;50.364;14.874;2022-10-30T04:41:09;49.00;;;26.40;;
66546;SDS011;53400;50.364;14.874;2022-10-30T04:43:35;35.53;;;23.13;;
66546;SDS011;53400;50.364;14.874;2022-10-30T04:46:02;42.88;;;24.40;;
66546;SDS011;53400;50.364;14.874;2022-10-30T04:48:29;34.33;;;22.73;;
66546;SDS011;53400;50.364;14.874;2022-10-30T04:50:56;34.47;;;23.27;;
66546;SDS011;53400;50.364;14.874;2022-10-30T04:53:23;36.25;;;23.23;;
66546;SDS011;53400;50.364;14.874;2022-10-30T04:55:53;34.95;;;23.38;;
66546;SDS011;53400;50.364;14.874;2022-10-30T04:58:19;47.67;;;25.92;;
66546;SDS011;53400;50.364;14.874;2022-10-30T05:00:44;49.15;;;28.50;;
66546;SDS011;53400;50.364;14.874;2022-10-30T05:05:42;42.33;;;25.33;;
66546;SDS011;53400;50.364;14.874;2022-10-30T05:08:08;41.88;;;27.10;;
66546;SDS011;53400;50.364;14.874;2022-10-30T05:10:34;41.80;;;23.00;;
66546;SDS011;53400;50.364;14.874;2022-10-30T05:13:04;35.15;;;21.58;;
66546;SDS011;53400;50.364;14.874;2022-10-30T05:15:30;31.90;;;21.42;;
66546;SDS011;53400;50.364;14.874;2022-10-30T05:17:56;36.60;;;21.67;;
66546;SDS011;53400;50.364;14.874;2022-10-30T05:20:22;51.53;;;23.70;;
66546;SDS011;53400;50.364;14.874;2022-10-30T05:22:52;36.58;;;22.40;;
66546;SDS011;53400;50.364;14.874;2022-10-30T05:25:19;34.25;;;21.40;;
66546;SDS011;53400;50.364;14.874;2022-10-30T05:27:45;40.75;;;23.63;;
66546;SDS011;53400;50.364;14.874;2022-10-30T05:30:12;42.55;;;23.35;;
66546;SDS011;53400;50.364;14.874;2022-10-30T05:32:38;36.47;;;22.55;;
66546;SDS011;53400;50.364;14.874;2022-10-30T05:35:04;42.60;;;23.27;;
66546;SDS011;53400;50.364;14.874;2022-10-30T05:37:30;41.70;;;22.67;;
66546;SDS011;53400;50.364;14.874;2022-10-30T05:39:56;49.38;;;25.02;;
66546;SDS011;53400;50.364;14.874;2022-10-30T05:42:22;38.20;;;23.70;;
66546;SDS011;53400;50.364;14.874;2022-10-30T05:44:48;33.42;;;22.35;;
66546;SDS011;53400;50.364;14.874;2022-10-30T05:47:15;41.40;;;24.50;;
66546;SDS011;53400;50.364;14.874;2022-10-30T05:49:41;59.38;;;25.63;;
66546;SDS011;53400;50.364;14.874;2022-10-30T05:52:07;32.20;;;21.55;;
66546;SDS011;53400;50.364;14.874;2022-10-30T05:54:33;33.42;;;22.40;;
66546;SDS011;53400;50.364;14.874;2022-10-30T05:56:59;34.03;;;23.08;;
66546;SDS011;53400;50.364;14.874;2022-10-30T05:59:25;31.13;;;20.98;;
66546;SDS011;53400;50.364;14.874;2022-10-30T06:01:51;33.50;;;21.67;;
66546;SDS011;53400;50.364;14.874;2022-10-30T06:04:18;38.45;;;23.98;;
66546;SDS011;53400;50.364;14.874;2022-10-30T06:06:44;40.90;;;24.35;;
66546;SDS011;53400;50.364;14.874;2022-10-30T06:09:10;39.55;;;25.67;;
66546;SDS011;53400;50.364;14.874;2022-10-30T06:11:35;39.78;;;24.02;;
66546;SDS011;53400;50.364;14.874;2022-10-30T06:14:01;36.17;;;23.30;;
66546;SDS011;53400;50.364;14.874;2022-10-30T06:16:27;48.00;;;25.08;;
66546;SDS011;53400;50.364;14.874;2022-10-30T06:18:53;43.45;;;24.73;;
66546;SDS011;53400;50.364;14.874;2022-10-30T06:21:21;46.92;;;25.92;;
66546;SDS011;53400;50.364;14.874;2022-10-30T06:23:47;40.90;;;25.05;;
66546;SDS011;53400;50.364;14.874;2022-10-30T06:26:14;38.47;;;24.08;;
66546;SDS011;53400;50.364;14.874;2022-10-30T06:28:40;43.63;;;25.08;;
66546;SDS011;53400;50.364;14.874;2022-10-30T06:31:05;38.35;;;24.98;;
66546;SDS011;53400;50.364;14.874;2022-10-30T06:33:31;36.85;;;22.80;;
66546;SDS011;53400;50.364;14.874;2022-10-30T06:35:57;36.20;;;22.52;;
66546;SDS011;53400;50.364;14.874;2022-10-30T06:38:24;32.55;;;21.08;;
66546;SDS011;53400;50.364;14.874;2022-10-30T06:40:50;33.97;;;20.80;;
66546;SDS011;53400;50.364;14.874;2022-10-30T06:43:16;36.10;;;21.67;;
66546;SDS011;53400;50.364;14.874;2022-10-30T06:45:42;35.83;;;21.63;;
66546;SDS011;53400;50.364;14.874;2022-10-30T06:48:08;36.85;;;22.00;;
66546;SDS011;53400;50.364;14.874;2022-10-30T06:50:34;35.78;;;20.55;;
66546;SDS011;53400;50.364;14.874;2022-10-30T06:53:00;34.15;;;20.98;;
66546;SDS011;53400;50.364;14.874;2022-10-30T06:55:27;36.20;;;21.27;;
66546;SDS011;53400;50.364;14.874;2022-10-30T06:57:54;36.45;;;22.48;;
66546;SDS011;53400;50.364;14.874;2022-10-30T07:00:20;34.97;;;20.38;;
66546;SDS011;53400;50.364;14.874;2022-10-30T07:02:53;32.88;;;20.85;;
66546;SDS011;53400;50.364;14.874;2022-10-30T07:05:19;36.25;;;21.50;;
66546;SDS011;53400;50.364;14.874;2022-10-30T07:07:45;37.25;;;22.33;;
66546;SDS011;53400;50.364;14.874;2022-10-30T07:10:11;41.80;;;25.20;;
66546;SDS011;53400;50.364;14.874;2022-10-30T07:12:38;42.97;;;26.17;;
66546;SDS011;53400;50.364;14.874;2022-10-30T07:15:05;42.67;;;26.95;;
66546;SDS011;53400;50.364;14.874;2022-10-30T07:17:31;41.25;;;25.52;;
66546;SDS011;53400;50.364;14.874;2022-10-30T07:19:57;37.22;;;24.83;;
66546;SDS011;53400;50.364;14.874;2022-10-30T07:22:23;39.78;;;24.90;;
66546;SDS011;53400;50.364;14.874;2022-10-30T07:24:49;39.08;;;25.67;;
66546;SDS011;53400;50.364;14.874;2022-10-30T07:27:15;36.67;;;24.75;;
66546;SDS011;53400;50.364;14.874;2022-10-30T07:29:42;41.25;;;25.60;;
66546;SDS011;53400;50.364;14.874;2022-10-30T07:32:10;39.15;;;26.15;;
66546;SDS011;53400;50.364;14.874;2022-10-30T07:34:36;40.20;;;28.10;;
66546;SDS011;53400;50.364;14.874;2022-10-30T07:37:02;43.25;;;27.25;;
66546;SDS011;53400;50.364;14.874;2022-10-30T07:39:28;48.25;;;30.25;;
66546;SDS011;53400;50.364;14.874;2022-10-30T07:41:54;37.92;;;24.80;;
66546;SDS011;53400;50.364;14.874;2022-10-30T07:44:20;38.45;;;26.05;;
66546;SDS011;53400;50.364;14.874;2022-10-30T07:46:47;39.42;;;25.25;;
66546;SDS011;53400;50.364;14.874;2022-10-30T07:49:13;37.38;;;23.85;;
66546;SDS011;53400;50.364;14.874;2022-10-30T07:51:39;38.17;;;24.17;;
66546;SDS011;53400;50.364;14.874;2022-10-30T07:54:05;33.83;;;23.02;;
66546;SDS011;53400;50.364;14.874;2022-10-30T07:56:31;32.35;;;21.70;;
66546;SDS011;53400;50.364;14.874;2022-10-30T07:58:56;35.05;;;21.13;;
66546;SDS011;53400;50.364;14.874;2022-10-30T08:01:23;34.45;;;22.10;;
66546;SDS011;53400;50.364;14.874;2022-10-30T08:03:50;36.15;;;22.45;;
66546;SDS011;53400;50.364;14.874;2022-10-30T08:06:16;34.65;;;23.13;;
66546;SDS011;53400;50.364;14.874;2022-10-30T08:08:42;35.00;;;21.95;;
66546;SDS011;53400;50.364;14.874;2022-10-30T08:11:08;33.60;;;21.35;;
66546;SDS011;53400;50.364;14.874;2022-10-30T08:13:34;36.60;;;22.38;;
66546;SDS011;53400;50.364;14.874;2022-10-30T08:15:59;38.40;;;26.63;;
66546;SDS011;53400;50.364;14.874;2022-10-30T08:18:25;34.97;;;22.58;;
66546;SDS011;53400;50.364;14.874;2022-10-30T08:20:53;31.38;;;21.33;;
66546;SDS011;53400;50.364;14.874;2022-10-30T08:23:19;32.95;;;21.92;;
66546;SDS011;53400;50.364;14.874;2022-10-30T08:25:46;32.30;;;21.05;;
66546;SDS011;53400;50.364;14.874;2022-10-30T08:28:12;32.78;;;21.80;;
66546;SDS011;53400;50.364;14.874;2022-10-30T08:30:38;31.35;;;21.90;;
66546;SDS011;53400;50.364;14.874;2022-10-30T08:33:05;38.33;;;22.70;;
66546;SDS011;53400;50.364;14.874;2022-10-30T08:35:34;32.83;;;21.85;;
66546;SDS011;53400;50.364;14.874;2022-10-30T08:38:01;31.70;;;20.38;;
66546;SDS011;53400;50.364;14.874;2022-10-30T08:40:27;31.77;;;21.45;;
66546;SDS011;53400;50.364;14.874;2022-10-30T08:42:54;30.63;;;21.00;;
66546;SDS011;53400;50.364;14.874;2022-10-30T08:45:21;29.85;;;20.13;;
66546;SDS011;53400;50.364;14.874;2022-10-30T08:47:54;28.83;;;19.65;;
66546;SDS011;53400;50.364;14.874;2022-10-30T08:50:21;27.47;;;19.23;;
66546;SDS011;53400;50.364;14.874;2022-10-30T08:52:47;23.35;;;17.13;;
66546;SDS011;53400;50.364;14.874;2022-10-30T08:55:14;26.48;;;18.13;;
66546;SDS011;53400;50.364;14.874;2022-10-30T08:57:41;23.23;;;16.98;;
66546;SDS011;53400;50.364;14.874;2022-10-30T09:00:07;25.88;;;17.13;;
66546;SDS011;53400;50.364;14.874;2022-10-30T09:02:34;24.83;;;16.58;;
66546;SDS011;53400;50.364;14.874;2022-10-30T09:05:03;25.17;;;17.65;;
66546;SDS011;53400;50.364;14.874;2022-10-30T09:07:30;23.38;;;17.23;;
66546;SDS011;53400;50.364;14.874;2022-10-30T09:09:56;24.42;;;17.00;;
66546;SDS011;53400;50.364;14.874;2022-10-30T09:12:23;24.40;;;16.58;;
66546;SDS011;53400;50.364;14.874;2022-10-30T09:14:49;23.17;;;16.95;;
66546;SDS011;53400;50.364;14.874;2022-10-30T09:17:15;22.52;;;16.52;;
66546;SDS011;53400;50.364;14.874;2022-10-30T09:19:41;23.95;;;16.20;;
66546;SDS011;53400;50.364;14.874;2022-10-30T09:22:07;21.77;;;16.13;;
66546;SDS011;53400;50.364;14.874;2022-10-30T09:24:33;25.48;;;16.60;;
66546;SDS011;53400;50.364;14.874;2022-10-30T09:26:59;23.55;;;16.10;;
66546;SDS011;53400;50.364;14.874;2022-10-30T09:29:26;21.67;;;16.00;;
66546;SDS011;53400;50.364;14.874;2022-10-30T09:31:53;24.05;;;15.43;;
66546;SDS011;53400;50.364;14.874;2022-10-30T09:34:19;25.10;;;15.57;;
66546;SDS011;53400;50.364;14.874;2022-10-30T09:36:45;21.92;;;15.15;;
66546;SDS011;53400;50.364;14.874;2022-10-30T09:39:12;20.67;;;13.30;;
66546;SDS011;53400;50.364;14.874;2022-10-30T09:41:43;20.05;;;13.50;;
66546;SDS011;53400;50.364;14.874;2022-10-30T09:44:24;21.17;;;13.77;;
66546;SDS011;53400;50.364;14.874;2022-10-30T09:47:04;19.63;;;14.30;;
66546;SDS011;53400;50.364;14.874;2022-10-30T09:52:32;17.73;;;13.13;;
66546;SDS011;53400;50.364;14.874;2022-10-30T09:55:14;17.58;;;13.35;;
66546;SDS011;53400;50.364;14.874;2022-10-30T09:57:49;18.70;;;13.13;;
66546;SDS011;53400;50.364;14.874;2022-10-30T10:00:25;18.75;;;12.95;;
66546;SDS011;53400;50.364;14.874;2022-10-30T10:03:11;18.30;;;13.63;;
66546;SDS011;53400;50.364;14.874;2022-10-30T10:05:48;18.08;;;13.20;;
66546;SDS011;53400;50.364;14.874;2022-10-30T10:08:18;20.42;;;13.30;;
66546;SDS011;53400;50.364;14.874;2022-10-30T10:10:48;19.33;;;12.93;;
66546;SDS011;53400;50.364;14.874;2022-10-30T10:13:22;23.60;;;14.40;;
66546;SDS011;53400;50.364;14.874;2022-10-30T10:15:54;22.08;;;13.82;;
66546;SDS011;53400;50.364;14.874;2022-10-30T10:18:24;20.33;;;13.43;;
66546;SDS011;53400;50.364;14.874;2022-10-30T10:20:55;19.90;;;14.15;;
66546;SDS011;53400;50.364;14.874;2022-10-30T10:23:28;20.73;;;14.15;;
66546;SDS011;53400;50.364;14.874;2022-10-30T10:25:59;18.92;;;13.07;;
66546;SDS011;53400;50.364;14.874;2022-10-30T10:28:48;24.25;;;14.05;;
66546;SDS011;53400;50.364;14.874;2022-10-30T10:31:26;19.30;;;12.82;;
66546;SDS011;53400;50.364;14.874;2022-10-30T10:34:08;18.80;;;12.35;;
66546;SDS011;53400;50.364;14.874;2022-10-30T10:36:50;22.35;;;13.88;;
66546;SDS011;53400;50.364;14.874;2022-10-30T10:39:29;23.70;;;14.45;;
66546;SDS011;53400;50.364;14.874;2022-10-30T10:42:08;20.17;;;13.20;;
66546;SDS011;53400;50.364;14.874;2022-10-30T10:44:45;21.42;;;13.68;;
66546;SDS011;53400;50.364;14.874;2022-10-30T10:47:27;21.30;;;13.68;;
66546;SDS011;53400;50.364;14.874;2022-10-30T10:52:39;19.58;;;13.93;;
66546;SDS011;53400;50.364;14.874;2022-10-30T10:55:12;21.00;;;13.80;;
66546;SDS011;53400;50.364;14.874;2022-10-30T10:57:41;20.23;;;13.80;;
66546;SDS011;53400;50.364;14.874;2022-10-30T11:00:12;22.75;;;14.43;;
66546;SDS011;53400;50.364;14.874;2022-10-30T11:02:42;23.08;;;15.73;;
66546;SDS011;53400;50.364;14.874;2022-10-30T11:05:15;21.65;;;14.60;;
66546;SDS011;53400;50.364;14.874;2022-10-30T11:07:47;20.40;;;14.60;;
66546;SDS011;53400;50.364;14.874;2022-10-30T11:10:15;21.52;;;14.55;;
66546;SDS011;53400;50.364;14.874;2022-10-30T11:12:44;19.40;;;13.93;;
66546;SDS011;53400;50.364;14.874;2022-10-30T11:15:28;21.05;;;14.45;;
66546;SDS011;53400;50.364;14.874;2022-10-30T11:18:04;17.98;;;13.30;;
66546;SDS011;53400;50.364;14.874;2022-10-30T11:20:39;21.35;;;13.52;;
66546;SDS011;53400;50.364;14.874;2022-10-30T11:23:31;20.35;;;13.73;;
66546;SDS011;53400;50.364;14.874;2022-10-30T11:25:59;19.38;;;13.52;;
66546;SDS011;53400;50.364;14.874;2022-10-30T11:28:30;18.88;;;12.55;;
66546;SDS011;53400;50.364;14.874;2022-10-30T11:31:15;19.73;;;12.93;;
66546;SDS011;53400;50.364;14.874;2022-10-30T11:33:43;16.75;;;12.18;;
66546;SDS011;53400;50.364;14.874;2022-10-30T11:36:09;20.10;;;12.68;;
66546;SDS011;53400;50.364;14.874;2022-10-30T11:38:38;19.05;;;12.82;;
66546;SDS011;53400;50.364;14.874;2022-10-30T11:41:04;17.88;;;12.30;;
66546;SDS011;53400;50.364;14.874;2022-10-30T11:43:30;19.13;;;13.13;;
66546;SDS011;53400;50.364;14.874;2022-10-30T11:45:56;23.05;;;13.38;;
66546;SDS011;53400;50.364;14.874;2022-10-30T11:48:24;18.50;;;12.93;;
66546;SDS011;53400;50.364;14.874;2022-10-30T11:50:55;18.95;;;12.55;;
66546;SDS011;53400;50.364;14.874;2022-10-30T11:53:24;18.98;;;13.75;;
66546;SDS011;53400;50.364;14.874;2022-10-30T11:55:55;21.85;;;15.38;;
66546;SDS011;53400;50.364;14.874;2022-10-30T11:58:23;21.00;;;11.65;;
66546;SDS011;53400;50.364;14.874;2022-10-30T12:00:57;20.25;;;13.98;;
66546;SDS011;53400;50.364;14.874;2022-10-30T12:03:26;23.45;;;15.80;;
66546;SDS011;53400;50.364;14.874;2022-10-30T12:06:06;21.27;;;14.10;;
66546;SDS011;53400;50.364;14.874;2022-10-30T12:08:34;20.55;;;14.75;;
66546;SDS011;53400;50.364;14.874;2022-10-30T12:11:00;21.65;;;15.00;;
66546;SDS011;53400;50.364;14.874;2022-10-30T12:13:31;19.38;;;14.52;;
66546;SDS011;53400;50.364;14.874;2022-10-30T12:16:02;22.17;;;14.32;;
66546;SDS011;53400;50.364;14.874;2022-10-30T12:18:31;20.45;;;13.38;;
66546;SDS011;53400;50.364;14.874;2022-10-30T12:20:58;20.85;;;13.75;;
66546;SDS011;53400;50.364;14.874;2022-10-30T12:23:26;20.90;;;14.02;;
66546;SDS011;53400;50.364;14.874;2022-10-30T12:25:53;21.38;;;14.95;;
66546;SDS011;53400;50.364;14.874;2022-10-30T12:28:22;18.80;;;13.93;;
66546;SDS011;53400;50.364;14.874;2022-10-30T12:30:51;21.50;;;13.73;;
66546;SDS011;53400;50.364;14.874;2022-10-30T12:33:20;20.85;;;14.50;;
66546;SDS011;53400;50.364;14.874;2022-10-30T12:35:51;18.48;;;13.95;;
66546;SDS011;53400;50.364;14.874;2022-10-30T12:38:20;20.88;;;14.15;;
66546;SDS011;53400;50.364;14.874;2022-10-30T12:40:56;20.05;;;14.18;;
66546;SDS011;53400;50.364;14.874;2022-10-30T12:43:26;20.45;;;13.82;;
66546;SDS011;53400;50.364;14.874;2022-10-30T12:45:53;22.50;;;14.48;;
66546;SDS011;53400;50.364;14.874;2022-10-30T12:48:24;25.77;;;14.43;;
66546;SDS011;53400;50.364;14.874;2022-10-30T12:51:08;18.17;;;14.07;;
66546;SDS011;53400;50.364;14.874;2022-10-30T12:53:43;22.08;;;14.15;;
66546;SDS011;53400;50.364;14.874;2022-10-30T12:56:14;18.30;;;13.77;;
66546;SDS011;53400;50.364;14.874;2022-10-30T12:58:43;17.92;;;13.00;;
66546;SDS011;53400;50.364;14.874;2022-10-30T13:01:15;19.45;;;14.15;;
66546;SDS011;53400;50.364;14.874;2022-10-30T13:03:49;19.92;;;14.45;;
66546;SDS011;53400;50.364;14.874;2022-10-30T13:06:21;20.60;;;13.80;;
66546;SDS011;53400;50.364;14.874;2022-10-30T13:09:08;18.63;;;13.80;;
66546;SDS011;53400;50.364;14.874;2022-10-30T13:11:41;21.58;;;14.35;;
66546;SDS011;53400;50.364;14.874;2022-10-30T13:14:14;23.42;;;15.75;;
66546;SDS011;53400;50.364;14.874;2022-10-30T13:16:43;20.52;;;14.15;;
66546;SDS011;53400;50.364;14.874;2022-10-30T13:19:10;19.92;;;13.95;;
66546;SDS011;53400;50.364;14.874;2022-10-30T13:21:38;18.83;;;13.65;;
66546;SDS011;53400;50.364;14.874;2022-10-30T13:24:14;18.38;;;14.18;;
66546;SDS011;53400;50.364;14.874;2022-10-30T13:26:46;24.42;;;14.32;;
66546;SDS011;53400;50.364;14.874;2022-10-30T13:29:21;20.63;;;14.15;;
66546;SDS011;53400;50.364;14.874;2022-10-30T13:34:32;20.13;;;13.27;;
66546;SDS011;53400;50.364;14.874;2022-10-30T13:37:06;19.65;;;13.80;;
66546;SDS011;53400;50.364;14.874;2022-10-30T13:39:39;21.92;;;14.50;;
66546;SDS011;53400;50.364;14.874;2022-10-30T13:42:15;22.20;;;14.20;;
66546;SDS011;53400;50.364;14.874;2022-10-30T13:44:54;19.13;;;13.70;;
66546;SDS011;53400;50.364;14.874;2022-10-30T13:47:30;19.30;;;14.73;;
66546;SDS011;53400;50.364;14.874;2022-10-30T13:50:10;21.83;;;15.25;;
66546;SDS011;53400;50.364;14.874;2022-10-30T13:52:48;20.02;;;14.25;;
66546;SDS011;53400;50.364;14.874;2022-10-30T13:55:21;21.15;;;14.85;;
66546;SDS011;53400;50.364;14.874;2022-10-30T13:57:51;23.35;;;15.23;;
66546;SDS011;53400;50.364;14.874;2022-10-30T14:00:22;20.40;;;14.02;;
66546;SDS011;53400;50.364;14.874;2022-10-30T14:03:03;20.95;;;14.63;;
66546;SDS011;53400;50.364;14.874;2022-10-30T14:05:41;20.92;;;15.38;;
66546;SDS011;53400;50.364;14.874;2022-10-30T14:08:14;20.95;;;15.05;;
66546;SDS011;53400;50.364;14.874;2022-10-30T14:10:52;21.75;;;14.70;;
66546;SDS011;53400;50.364;14.874;2022-10-30T14:13:21;20.98;;;14.85;;
66546;SDS011;53400;50.364;14.874;2022-10-30T14:15:55;19.02;;;14.23;;
66546;SDS011;53400;50.364;14.874;2022-10-30T14:18:25;22.52;;;14.30;;
66546;SDS011;53400;50.364;14.874;2022-10-30T14:20:56;22.48;;;14.82;;
66546;SDS011;53400;50.364;14.874;2022-10-30T14:23:24;21.83;;;14.73;;
66546;SDS011;53400;50.364;14.874;2022-10-30T14:26:17;20.10;;;15.13;;
66546;SDS011;53400;50.364;14.874;2022-10-30T14:28:45;19.73;;;15.00;;
66546;SDS011;53400;50.364;14.874;2022-10-30T14:31:14;23.15;;;14.77;;
66546;SDS011;53400;50.364;14.874;2022-10-30T14:33:43;19.52;;;14.88;;
66546;SDS011;53400;50.364;14.874;2022-10-30T14:36:17;21.05;;;14.82;;